createdAt,value
2023-03-30T00:04:43.106Z,100212.72
2023-03-30T00:09:46.525Z,100195.31
2023-03-30T00:14:48.605Z,100196.19
2023-03-30T00:19:50.530Z,100177.06
2023-03-30T00:24:53.578Z,100170.13
2023-03-30T00:29:55.553Z,100173.56
2023-03-30T00:34:57.266Z,100169.25
2023-03-30T00:40:00.900Z,100169.25
2023-03-30T00:45:12.129Z,100177.06
2023-03-30T00:50:14.288Z,100146.63
2023-03-30T00:55:18.839Z,100129.25
2023-03-30T01:00:22.055Z,100117.94
2023-03-30T01:05:24.346Z,100106.66
2023-03-30T01:10:27.462Z,100114.50
2023-03-30T01:15:30.948Z,100095.38
2023-03-30T01:21:23.924Z,100085.81
2023-03-30T01:26:50.538Z,100077.97
2023-03-30T01:32:02.075Z,100083.22
2023-03-30T01:37:31.363Z,100080.63
2023-03-30T01:42:37.380Z,100084.97
2023-03-30T01:47:40.326Z,100071.94
2023-03-30T01:52:43.884Z,100058.03
2023-03-30T01:57:48.662Z,100054.56
2023-03-30T02:02:54.401Z,100047.63
2023-03-30T02:07:57.808Z,100033.72
2023-03-30T02:13:01.090Z,100034.56
2023-03-30T02:18:03.133Z,100011.09
2023-03-30T02:23:06.626Z,99998.06
2023-03-30T02:28:09.899Z,99986.78
2023-03-30T02:33:15.773Z,99982.44
2023-03-30T02:38:40.158Z,99980.72
2023-03-30T02:43:48.109Z,99957.25
2023-03-30T02:48:54.930Z,99969.44
2023-03-30T02:53:59.032Z,99955.53
2023-03-30T02:59:23.091Z,99947.72
2023-03-30T03:04:25.140Z,99939.03
2023-03-30T03:09:45.911Z,99923.38
2023-03-30T03:14:49.437Z,99879.97
2023-03-30T03:19:51.263Z,99897.31
2023-03-30T03:24:54.993Z,99897.31
2023-03-30T03:30:18.335Z,99895.56
2023-03-30T03:35:29.880Z,99892.94
2023-03-30T03:40:32.704Z,99883.38
2023-03-30T03:45:35.966Z,99894.66
2023-03-30T03:50:38.102Z,99876.38
2023-03-30T03:55:39.826Z,99872.91
2023-03-30T04:00:42.892Z,99859.00
2023-03-30T04:05:45.890Z,99864.16
2023-03-30T04:10:47.656Z,99848.44
2023-03-30T04:16:00.056Z,99844.06
2023-03-30T04:21:13.074Z,99821.41
2023-03-30T04:26:34.247Z,99825.72
2023-03-30T04:32:04.373Z,99822.13
2023-03-30T04:37:32.929Z,99820.34
2023-03-30T04:43:14.170Z,99808.94
2023-03-30T04:48:24.091Z,99805.38
2023-03-30T04:53:44.219Z,99798.38
2023-03-30T04:58:49.007Z,99796.56
2023-03-30T05:04:19.582Z,99802.56
2023-03-30T05:09:47.365Z,99799.03
2023-03-30T05:15:08.573Z,99811.16
2023-03-30T05:20:37.884Z,99795.50
2023-03-30T05:26:08.904Z,99807.63
2023-03-30T05:31:27.922Z,99803.19
2023-03-30T05:36:51.374Z,99797.03
2023-03-30T05:42:22.560Z,99794.31
2023-03-30T05:47:47.290Z,99798.56
2023-03-30T05:53:28.986Z,99805.44
2023-03-30T05:58:55.942Z,99791.34
2023-03-30T06:04:23.036Z,99792.94
2023-03-30T06:09:26.702Z,99780.41
2023-03-30T06:14:30.834Z,99779.25
2023-03-30T06:19:59.967Z,99785.59
2023-03-30T06:25:04.099Z,99785.72
2023-03-30T06:30:09.457Z,99776.47
2023-03-30T06:35:16.142Z,99775.59
2023-03-30T06:40:19.735Z,99768.88
2023-03-30T06:45:24.379Z,99754.28
2023-03-30T06:50:27.290Z,99727.63
2023-03-30T06:55:30.866Z,99737.22
2023-03-30T07:00:32.800Z,99728.88
2023-03-30T07:05:53.060Z,99730.78
2023-03-30T07:11:09.921Z,99727.06
2023-03-30T07:16:14.454Z,99742.56
2023-03-30T07:21:16.439Z,99745.59
2023-03-30T07:26:19.456Z,99750.16
2023-03-30T07:31:29.433Z,99757.69
2023-03-30T07:36:31.843Z,99756.84
2023-03-30T07:41:35.051Z,99775.47
2023-03-30T07:46:36.951Z,99769.34
2023-03-30T07:51:39.556Z,99777.50
2023-03-30T07:56:55.428Z,99776.72
2023-03-30T08:01:57.734Z,99774.16
2023-03-30T08:07:14.473Z,99772.75
2023-03-30T08:12:17.738Z,99755.41
2023-03-30T08:17:21.188Z,99753.16
2023-03-30T08:22:23.022Z,99764.97
2023-03-30T08:27:26.078Z,99763.94
2023-03-30T08:32:27.784Z,99766.97
2023-03-30T08:37:29.543Z,99776.22
2023-03-30T08:42:45.073Z,99779.28
2023-03-30T08:47:49.105Z,99785.34
2023-03-30T08:52:50.884Z,99777.50
2023-03-30T08:57:55.917Z,99775.59
2023-03-30T09:03:01.138Z,99755.56
2023-03-30T09:08:05.134Z,99755.63
2023-03-30T09:13:08.182Z,99762.31
2023-03-30T09:18:14.067Z,99757.50
2023-03-30T09:23:17.439Z,99750.13
2023-03-30T09:28:22.699Z,99753.22
2023-03-30T09:33:27.994Z,99748.06
2023-03-30T09:38:30.808Z,99738.78
2023-03-30T09:43:35.021Z,99741.91
2023-03-30T09:48:41.069Z,99743.94
2023-03-30T09:53:43.082Z,99730.34
2023-03-30T09:58:46.146Z,99730.09
2023-03-30T10:04:06.587Z,99724.41
2023-03-30T10:09:11.436Z,99710.75
2023-03-30T10:14:23.693Z,99702.38
2023-03-30T10:19:25.620Z,99711.88
2023-03-30T10:24:28.174Z,99705.44
2023-03-30T10:29:31.258Z,99709.25
2023-03-30T10:34:36.364Z,99755.16
2023-03-30T10:39:39.452Z,99769.50
2023-03-30T10:44:44.600Z,99795.13
2023-03-30T10:49:51.397Z,99774.78
2023-03-30T10:54:55.133Z,99742.56
2023-03-30T11:00:09.758Z,99727.28
2023-03-30T11:05:12.906Z,99745.69
2023-03-30T11:10:16.989Z,99729.81
2023-03-30T11:15:22.092Z,99725.34
2023-03-30T11:20:27.285Z,99741.66
2023-03-30T11:25:30.554Z,99742.09
2023-03-30T11:30:33.968Z,99769.00
2023-03-30T11:35:36.835Z,99808.75
2023-03-30T11:40:41.031Z,99815.75
2023-03-30T11:45:52.329Z,99798.50
2023-03-30T11:51:02.273Z,99779.06
2023-03-30T11:56:08.176Z,99769.63
2023-03-30T12:01:22.432Z,99765.78
2023-03-30T12:06:29.122Z,99753.72
2023-03-30T12:11:33.494Z,99756.31
2023-03-30T12:16:39.437Z,99742.00
2023-03-30T12:21:43.501Z,99749.38
2023-03-30T12:26:55.017Z,99758.38
2023-03-30T12:32:07.116Z,99740.28
2023-03-30T12:37:13.011Z,99734.63
2023-03-30T12:42:26.434Z,99735.09
2023-03-30T12:47:39.388Z,99725.75
2023-03-30T12:52:46.390Z,99733.13
2023-03-30T12:57:57.958Z,99735.31
2023-03-30T13:03:39.831Z,99721.47
2023-03-30T13:08:47.034Z,99724.22
2023-03-30T13:14:10.170Z,99726.28
2023-03-30T13:19:25.358Z,99727.78
2023-03-30T13:24:36.468Z,99731.84
2023-03-30T13:29:56.668Z,99736.63
2023-03-30T13:35:10.755Z,99732.06
2023-03-30T13:40:35.646Z,99741.41
2023-03-30T13:45:56.355Z,99737.78
2023-03-30T13:51:03.859Z,99750.13
2023-03-30T13:56:19.600Z,99748.84
2023-03-30T14:01:33.217Z,99772.69
2023-03-30T14:06:57.628Z,99763.47
2023-03-30T14:12:03.012Z,99743.41
2023-03-30T14:17:12.979Z,99741.09
2023-03-30T14:22:17.844Z,99734.97
2023-03-30T14:27:21.041Z,99742.00
2023-03-30T14:32:24.892Z,99740.97
2023-03-30T14:37:26.790Z,99733.91
2023-03-30T14:42:33.629Z,99742.69
2023-03-30T14:47:36.252Z,99753.16
2023-03-30T14:52:38.919Z,99753.81
2023-03-30T14:57:42.078Z,99757.31
2023-03-30T15:02:43.859Z,99744.91
2023-03-30T15:07:47.125Z,99746.22
2023-03-30T15:12:50.830Z,99736.63
2023-03-30T15:17:52.668Z,99742.81
2023-03-30T15:22:54.417Z,99750.84
2023-03-30T15:27:58.388Z,99747.63
2023-03-30T15:33:00.325Z,99743.56
2023-03-30T15:38:02.973Z,99746.56
2023-03-30T15:43:16.324Z,99758.72
2023-03-30T15:48:20.066Z,99766.16
2023-03-30T15:53:30.932Z,99767.19
2023-03-30T15:58:34.338Z,99771.34
2023-03-30T16:03:39.346Z,99780.28
2023-03-30T16:08:43.485Z,99790.16
2023-03-30T16:13:47.487Z,99773.56
2023-03-30T16:18:49.191Z,99778.53
2023-03-30T16:23:51.554Z,99787.53
2023-03-30T16:28:54.702Z,99806.09
2023-03-30T16:33:56.386Z,99800.44
2023-03-30T16:38:58.065Z,99804.69
2023-03-30T16:44:01.165Z,99819.16
2023-03-30T16:49:03.154Z,99836.69
2023-03-30T16:54:04.966Z,99838.31
2023-03-30T16:59:21.061Z,99838.09
2023-03-30T17:04:22.793Z,99829.81
2023-03-30T17:09:24.521Z,99835.34
2023-03-30T17:14:28.023Z,99841.56
2023-03-30T17:19:29.811Z,99847.00
2023-03-30T17:24:31.568Z,99859.47
2023-03-30T17:29:34.805Z,99867.53
2023-03-30T17:34:36.544Z,99885.09
2023-03-30T17:39:38.202Z,99878.53
2023-03-30T17:44:41.211Z,99876.38
2023-03-30T17:49:42.923Z,99883.63
2023-03-30T17:54:44.630Z,99876.75
2023-03-30T17:59:47.708Z,99883.97
2023-03-30T18:04:49.429Z,99878.88
2023-03-30T18:09:51.238Z,99883.41
2023-03-30T18:14:54.256Z,99901.19
2023-03-30T18:19:56.083Z,99889.09
2023-03-30T18:24:57.902Z,99885.75
2023-03-30T18:30:01.043Z,99891.97
2023-03-30T18:35:02.778Z,99897.22
2023-03-30T18:40:09.303Z,99887.66
2023-03-30T18:45:15.493Z,99898.09
2023-03-30T18:50:19.612Z,99892.81
2023-03-30T18:55:21.317Z,99893.59
2023-03-30T19:00:26.239Z,99907.44
2023-03-30T19:05:29.018Z,99907.28
2023-03-30T19:10:31.583Z,99907.19
2023-03-30T19:15:35.456Z,99910.69
2023-03-30T19:20:39.698Z,99914.28
2023-03-30T19:25:41.850Z,99913.34
2023-03-30T19:30:45.292Z,99925.59
2023-03-30T19:35:47.263Z,99910.88
2023-03-30T19:40:49.112Z,99905.47
2023-03-30T19:45:52.307Z,99906.44
2023-03-30T19:50:54.192Z,99900.25
2023-03-30T19:55:55.914Z,99909.69
2023-03-30T20:01:04.140Z,99903.56
2023-03-30T20:06:08.602Z,99911.50
2023-03-30T20:11:12.517Z,99897.63
2023-03-30T20:16:22.835Z,99902.13
2023-03-30T20:21:26.188Z,99892.56
2023-03-30T20:26:29.169Z,99902.13
2023-03-30T20:31:32.463Z,99894.31
2023-03-30T20:36:34.224Z,99890.88
2023-03-30T20:41:39.223Z,99891.81
2023-03-30T20:46:43.420Z,99890.03
2023-03-30T20:51:46.391Z,99892.66
2023-03-30T20:56:48.257Z,99889.94
2023-03-30T21:01:52.041Z,99900.41
2023-03-30T21:06:53.945Z,99883.00
2023-03-30T21:11:55.828Z,99879.53
2023-03-30T21:16:58.994Z,99889.13
2023-03-30T21:22:01.043Z,99883.88
2023-03-30T21:27:02.798Z,99873.69
2023-03-30T21:32:06.440Z,99875.56
2023-03-30T21:37:08.519Z,99862.56
2023-03-30T21:42:10.571Z,99875.69
2023-03-30T21:47:16.549Z,99861.94
2023-03-30T21:52:18.288Z,99858.59
2023-03-30T21:57:20.483Z,99859.66
2023-03-30T22:02:23.835Z,99855.41
2023-03-30T22:07:25.695Z,99851.09
2023-03-30T22:12:27.467Z,99859.84
2023-03-30T22:17:34.987Z,99846.75
2023-03-30T22:22:36.856Z,99843.22
2023-03-30T22:27:38.673Z,99834.50
2023-03-30T22:32:42.273Z,99837.13
2023-03-30T22:37:44.004Z,99837.97
2023-03-30T22:42:45.980Z,99836.19
2023-03-30T22:47:49.219Z,99838.75
2023-03-30T22:52:51.051Z,99831.69
2023-03-30T22:57:53.195Z,99835.13
2023-03-30T23:02:56.365Z,99832.44
2023-03-30T23:07:58.831Z,99836.72
2023-03-30T23:13:00.595Z,99820.09
2023-03-30T23:18:03.767Z,99811.31
2023-03-30T23:23:05.835Z,99809.53
2023-03-30T23:28:07.662Z,99813.06
2023-03-30T23:33:11.384Z,99801.69
2023-03-30T23:38:13.160Z,99803.56
2023-03-30T23:43:15.126Z,99797.38
2023-03-30T23:48:18.264Z,99801.66
2023-03-30T23:53:20.015Z,99787.75
2023-03-30T23:58:21.900Z,99782.47
